sensor_id;sensor_type;location;lat;lon;timestamp;pressure;altitude;pressure_sealevel;temperature;humidity
12759;BME280;20944;47.048;15.390;2023-10-19T00:00:54;96718.50;;;7.45;100.00
12759;BME280;20944;47.048;15.390;2023-10-19T00:03:24;96710.78;;;7.42;100.00
12759;BME280;20944;47.048;15.390;2023-10-19T00:05:55;96708.34;;;7.36;100.00
12759;BME280;20944;47.048;15.390;2023-10-19T00:08:23;96710.06;;;7.37;100.00
12759;BME280;20944;47.048;15.390;2023-10-19T00:10:53;96607.63;;;6.77;100.00
12759;BME280;20944;47.048;15.390;2023-10-19T00:13:29;96676.31;;;7.02;100.00
12759;BME280;20944;47.048;15.390;2023-10-19T00:15:57;96490.72;;;6.12;100.00
12759;BME280;20944;47.048;15.390;2023-10-19T00:18:26;96701.94;;;7.46;100.00
12759;BME280;20944;47.048;15.390;2023-10-19T00:20:59;96702.00;;;7.44;100.00
12759;BME280;20944;47.048;15.390;2023-10-19T00:23:37;96705.56;;;7.42;100.00
12759;BME280;20944;47.048;15.390;2023-10-19T00:26:06;96605.09;;;6.75;100.00
12759;BME280;20944;47.048;15.390;2023-10-19T00:28:36;96679.22;;;7.21;100.00
12759;BME280;20944;47.048;15.390;2023-10-19T00:31:06;96681.09;;;7.18;100.00
12759;BME280;20944;47.048;15.390;2023-10-19T00:33:37;96605.75;;;6.82;100.00
12759;BME280;20944;47.048;15.390;2023-10-19T00:36:07;96661.84;;;7.22;100.00
12759;BME280;20944;47.048;15.390;2023-10-19T00:38:37;96663.53;;;7.24;100.00
12759;BME280;20944;47.048;15.390;2023-10-19T00:41:16;96654.50;;;7.35;100.00
12759;BME280;20944;47.048;15.390;2023-10-19T00:43:48;96650.13;;;7.37;100.00
12759;BME280;20944;47.048;15.390;2023-10-19T00:46:24;96656.91;;;7.42;100.00
12759;BME280;20944;47.048;15.390;2023-10-19T00:49:02;96610.69;;;7.19;100.00
12759;BME280;20944;47.048;15.390;2023-10-19T00:51:39;96618.47;;;7.21;100.00
12759;BME280;20944;47.048;15.390;2023-10-19T00:54:23;96622.88;;;7.19;100.00
12759;BME280;20944;47.048;15.390;2023-10-19T00:56:59;96632.06;;;7.30;100.00
12759;BME280;20944;47.048;15.390;2023-10-19T00:59:31;96609.91;;;7.17;100.00
12759;BME280;20944;47.048;15.390;2023-10-19T01:02:03;96572.88;;;7.08;100.00
12759;BME280;20944;47.048;15.390;2023-10-19T01:04:46;96619.56;;;7.42;100.00
12759;BME280;20944;47.048;15.390;2023-10-19T01:07:18;96606.94;;;7.29;100.00
12759;BME280;20944;47.048;15.390;2023-10-19T01:09:50;96618.13;;;7.32;100.00
12759;BME280;20944;47.048;15.390;2023-10-19T01:12:20;96612.50;;;7.17;100.00
12759;BME280;20944;47.048;15.390;2023-10-19T01:15:08;96608.88;;;7.23;100.00
12759;BME280;20944;47.048;15.390;2023-10-19T01:17:44;96598.97;;;7.06;100.00
12759;BME280;20944;47.048;15.390;2023-10-19T01:20:16;96595.56;;;7.04;100.00
12759;BME280;20944;47.048;15.390;2023-10-19T01:22:51;96610.19;;;7.08;100.00
12759;BME280;20944;47.048;15.390;2023-10-19T01:25:47;96593.03;;;7.01;100.00
12759;BME280;20944;47.048;15.390;2023-10-19T01:28:27;96599.00;;;7.05;100.00
12759;BME280;20944;47.048;15.390;2023-10-19T01:31:09;96588.63;;;7.03;100.00
12759;BME280;20944;47.048;15.390;2023-10-19T01:33:42;96585.16;;;7.02;100.00
12759;BME280;20944;47.048;15.390;2023-10-19T01:36:12;96592.06;;;7.03;100.00
12759;BME280;20944;47.048;15.390;2023-10-19T01:38:54;96498.19;;;6.52;100.00
12759;BME280;20944;47.048;15.390;2023-10-19T01:41:23;96541.81;;;6.73;100.00
12759;BME280;20944;47.048;15.390;2023-10-19T01:43:54;96574.16;;;6.94;100.00
12759;BME280;20944;47.048;15.390;2023-10-19T01:46:23;96562.94;;;6.92;100.00
12759;BME280;20944;47.048;15.390;2023-10-19T01:48:53;96560.31;;;6.92;100.00
12759;BME280;20944;47.048;15.390;2023-10-19T01:51:22;96533.09;;;6.74;100.00
12759;BME280;20944;47.048;15.390;2023-10-19T01:53:53;96563.84;;;6.90;100.00
12759;BME280;20944;47.048;15.390;2023-10-19T01:56:22;96558.09;;;6.80;100.00
12759;BME280;20944;47.048;15.390;2023-10-19T01:58:51;96554.59;;;6.81;100.00
12759;BME280;20944;47.048;15.390;2023-10-19T02:01:19;96525.78;;;6.58;100.00
12759;BME280;20944;47.048;15.390;2023-10-19T02:03:57;96547.88;;;6.74;100.00
12759;BME280;20944;47.048;15.390;2023-10-19T02:06:27;96527.06;;;6.72;100.00
12759;BME280;20944;47.048;15.390;2023-10-19T02:09:08;96545.25;;;6.74;100.00
12759;BME280;20944;47.048;15.390;2023-10-19T02:11:45;96528.88;;;6.70;100.00
12759;BME280;20944;47.048;15.390;2023-10-19T02:14:15;96532.91;;;6.81;100.00
12759;BME280;20944;47.048;15.390;2023-10-19T02:16:44;96523.41;;;6.80;100.00
12759;BME280;20944;47.048;15.390;2023-10-19T02:19:14;96498.13;;;6.55;100.00
12759;BME280;20944;47.048;15.390;2023-10-19T02:21:41;96518.56;;;6.67;100.00
12759;BME280;20944;47.048;15.390;2023-10-19T02:24:11;96518.50;;;6.69;100.00
12759;BME280;20944;47.048;15.390;2023-10-19T02:26:41;96514.28;;;6.65;100.00
12759;BME280;20944;47.048;15.390;2023-10-19T02:29:10;96510.03;;;6.62;100.00
12759;BME280;20944;47.048;15.390;2023-10-19T02:31:40;96521.84;;;6.74;100.00
12759;BME280;20944;47.048;15.390;2023-10-19T02:34:10;96514.75;;;6.49;100.00
12759;BME280;20944;47.048;15.390;2023-10-19T02:36:39;96529.66;;;6.44;100.00
12759;BME280;20944;47.048;15.390;2023-10-19T02:39:08;96504.91;;;6.31;100.00
12759;BME280;20944;47.048;15.390;2023-10-19T02:41:38;96486.88;;;6.25;100.00
12759;BME280;20944;47.048;15.390;2023-10-19T02:44:09;96483.97;;;6.34;100.00
12759;BME280;20944;47.048;15.390;2023-10-19T02:46:46;96490.03;;;6.35;100.00
12759;BME280;20944;47.048;15.390;2023-10-19T02:49:18;96476.41;;;6.27;100.00
12759;BME280;20944;47.048;15.390;2023-10-19T02:51:48;96489.13;;;6.37;100.00
12759;BME280;20944;47.048;15.390;2023-10-19T02:54:17;96475.25;;;6.37;100.00
12759;BME280;20944;47.048;15.390;2023-10-19T02:56:46;96487.06;;;6.19;100.00
12759;BME280;20944;47.048;15.390;2023-10-19T02:59:17;96476.66;;;6.19;100.00
12759;BME280;20944;47.048;15.390;2023-10-19T03:01:49;96491.28;;;6.23;100.00
12759;BME280;20944;47.048;15.390;2023-10-19T03:04:19;96387.91;;;5.71;100.00
12759;BME280;20944;47.048;15.390;2023-10-19T03:06:48;96495.81;;;6.16;100.00
12759;BME280;20944;47.048;15.390;2023-10-19T03:09:16;96484.34;;;6.22;100.00
12759;BME280;20944;47.048;15.390;2023-10-19T03:11:51;96483.66;;;6.15;100.00
12759;BME280;20944;47.048;15.390;2023-10-19T03:14:21;96461.13;;;6.16;100.00
12759;BME280;20944;47.048;15.390;2023-10-19T03:16:52;96454.50;;;6.06;100.00
12759;BME280;20944;47.048;15.390;2023-10-19T03:19:21;96471.75;;;6.08;100.00
12759;BME280;20944;47.048;15.390;2023-10-19T03:21:49;96469.94;;;6.12;100.00
12759;BME280;20944;47.048;15.390;2023-10-19T03:24:18;96459.69;;;6.06;100.00
12759;BME280;20944;47.048;15.390;2023-10-19T03:26:56;96457.72;;;6.14;100.00
12759;BME280;20944;47.048;15.390;2023-10-19T03:29:26;96455.91;;;6.17;100.00
12759;BME280;20944;47.048;15.390;2023-10-19T03:31:58;96453.41;;;6.13;100.00
12759;BME280;20944;47.048;15.390;2023-10-19T03:34:27;96449.84;;;6.17;100.00
12759;BME280;20944;47.048;15.390;2023-10-19T03:37:02;96444.00;;;6.09;100.00
12759;BME280;20944;47.048;15.390;2023-10-19T03:39:33;96438.72;;;6.12;100.00
12759;BME280;20944;47.048;15.390;2023-10-19T03:42:06;96432.00;;;6.05;100.00
12759;BME280;20944;47.048;15.390;2023-10-19T03:44:35;96444.84;;;6.09;100.00
12759;BME280;20944;47.048;15.390;2023-10-19T03:47:11;96454.56;;;6.04;100.00
12759;BME280;20944;47.048;15.390;2023-10-19T03:49:41;96428.84;;;5.93;100.00
12759;BME280;20944;47.048;15.390;2023-10-19T03:52:10;96433.78;;;6.03;100.00
12759;BME280;20944;47.048;15.390;2023-10-19T03:54:53;96420.09;;;5.98;100.00
12759;BME280;20944;47.048;15.390;2023-10-19T03:57:23;96362.81;;;5.69;100.00
12759;BME280;20944;47.048;15.390;2023-10-19T03:59:56;96402.88;;;5.93;100.00
12759;BME280;20944;47.048;15.390;2023-10-19T04:02:26;96412.84;;;6.07;100.00
12759;BME280;20944;47.048;15.390;2023-10-19T04:04:56;96421.38;;;6.12;100.00
12759;BME280;20944;47.048;15.390;2023-10-19T04:07:25;96427.41;;;6.13;100.00
12759;BME280;20944;47.048;15.390;2023-10-19T04:09:55;96422.75;;;6.24;100.00
12759;BME280;20944;47.048;15.390;2023-10-19T04:12:39;96416.25;;;6.09;100.00
12759;BME280;20944;47.048;15.390;2023-10-19T04:15:10;96416.72;;;5.94;100.00
12759;BME280;20944;47.048;15.390;2023-10-19T04:17:39;96398.00;;;5.81;100.00
12759;BME280;20944;47.048;15.390;2023-10-19T04:20:10;96407.75;;;5.73;100.00
12759;BME280;20944;47.048;15.390;2023-10-19T04:22:55;96405.56;;;5.89;100.00
12759;BME280;20944;47.048;15.390;2023-10-19T04:25:25;96394.25;;;5.90;100.00
12759;BME280;20944;47.048;15.390;2023-10-19T04:27:56;96383.97;;;5.87;100.00
12759;BME280;20944;47.048;15.390;2023-10-19T04:30:25;96372.06;;;5.80;100.00
12759;BME280;20944;47.048;15.390;2023-10-19T04:32:54;96387.31;;;5.92;100.00
12759;BME280;20944;47.048;15.390;2023-10-19T04:35:25;96380.59;;;5.83;100.00
12759;BME280;20944;47.048;15.390;2023-10-19T04:37:57;96369.28;;;5.86;100.00
12759;BME280;20944;47.048;15.390;2023-10-19T04:40:27;96364.19;;;5.81;100.00
12759;BME280;20944;47.048;15.390;2023-10-19T04:42:57;96373.09;;;6.04;100.00
12759;BME280;20944;47.048;15.390;2023-10-19T04:45:26;96360.25;;;5.99;100.00
12759;BME280;20944;47.048;15.390;2023-10-19T04:47:58;96366.53;;;5.92;100.00
12759;BME280;20944;47.048;15.390;2023-10-19T04:50:26;96335.00;;;5.73;100.00
12759;BME280;20944;47.048;15.390;2023-10-19T04:52:55;96362.19;;;5.92;100.00
12759;BME280;20944;47.048;15.390;2023-10-19T04:55:23;96356.81;;;5.97;100.00
12759;BME280;20944;47.048;15.390;2023-10-19T04:57:51;96338.97;;;5.85;100.00
12759;BME280;20944;47.048;15.390;2023-10-19T05:00:21;96351.88;;;5.88;100.00
12759;BME280;20944;47.048;15.390;2023-10-19T05:02:51;96368.31;;;5.88;100.00
12759;BME280;20944;47.048;15.390;2023-10-19T05:05:20;96339.06;;;5.82;100.00
12759;BME280;20944;47.048;15.390;2023-10-19T05:07:48;96348.00;;;5.73;100.00
12759;BME280;20944;47.048;15.390;2023-10-19T05:10:16;96339.91;;;5.82;100.00
12759;BME280;20944;47.048;15.390;2023-10-19T05:12:46;96309.50;;;5.56;100.00
12759;BME280;20944;47.048;15.390;2023-10-19T05:15:15;96346.13;;;5.77;100.00
12759;BME280;20944;47.048;15.390;2023-10-19T05:17:46;96354.00;;;5.75;100.00
12759;BME280;20944;47.048;15.390;2023-10-19T05:20:15;96328.91;;;5.74;100.00
12759;BME280;20944;47.048;15.390;2023-10-19T05:22:43;96358.91;;;5.84;100.00
12759;BME280;20944;47.048;15.390;2023-10-19T05:25:11;96353.22;;;5.72;100.00
12759;BME280;20944;47.048;15.390;2023-10-19T05:27:40;96326.66;;;5.62;100.00
12759;BME280;20944;47.048;15.390;2023-10-19T05:30:09;96333.31;;;5.72;100.00
12759;BME280;20944;47.048;15.390;2023-10-19T05:32:38;96313.72;;;5.60;100.00
12759;BME280;20944;47.048;15.390;2023-10-19T05:35:08;96344.03;;;5.89;100.00
12759;BME280;20944;47.048;15.390;2023-10-19T05:37:40;96325.88;;;5.88;100.00
12759;BME280;20944;47.048;15.390;2023-10-19T05:40:09;96340.53;;;5.92;100.00
12759;BME280;20944;47.048;15.390;2023-10-19T05:42:42;96320.78;;;5.85;100.00
12759;BME280;20944;47.048;15.390;2023-10-19T05:45:10;96335.22;;;5.95;100.00
12759;BME280;20944;47.048;15.390;2023-10-19T05:47:40;96303.09;;;5.98;100.00
12759;BME280;20944;47.048;15.390;2023-10-19T05:50:10;96323.66;;;6.05;100.00
12759;BME280;20944;47.048;15.390;2023-10-19T05:52:41;96319.81;;;6.17;100.00
12759;BME280;20944;47.048;15.390;2023-10-19T05:55:10;96326.59;;;6.22;100.00
12759;BME280;20944;47.048;15.390;2023-10-19T05:57:39;96332.53;;;6.26;100.00
12759;BME280;20944;47.048;15.390;2023-10-19T06:00:09;96324.72;;;6.26;100.00
12759;BME280;20944;47.048;15.390;2023-10-19T06:02:45;96330.56;;;6.33;100.00
12759;BME280;20944;47.048;15.390;2023-10-19T06:05:16;96328.75;;;6.35;100.00
12759;BME280;20944;47.048;15.390;2023-10-19T06:07:45;96340.53;;;6.46;100.00
12759;BME280;20944;47.048;15.390;2023-10-19T06:10:17;96334.19;;;6.55;100.00
12759;BME280;20944;47.048;15.390;2023-10-19T06:12:49;96344.53;;;6.57;100.00
12759;BME280;20944;47.048;15.390;2023-10-19T06:15:19;96335.78;;;6.59;100.00
12759;BME280;20944;47.048;15.390;2023-10-19T06:17:50;96308.25;;;6.52;100.00
12759;BME280;20944;47.048;15.390;2023-10-19T06:20:21;96331.50;;;6.83;100.00
12759;BME280;20944;47.048;15.390;2023-10-19T06:22:54;96331.88;;;6.97;100.00
12759;BME280;20944;47.048;15.390;2023-10-19T06:25:24;96330.34;;;7.17;100.00
12759;BME280;20944;47.048;15.390;2023-10-19T06:27:53;96319.72;;;7.23;100.00
12759;BME280;20944;47.048;15.390;2023-10-19T06:30:24;96316.59;;;7.37;100.00
12759;BME280;20944;47.048;15.390;2023-10-19T06:32:55;96317.09;;;7.46;100.00
12759;BME280;20944;47.048;15.390;2023-10-19T06:35:25;96319.38;;;7.55;100.00
12759;BME280;20944;47.048;15.390;2023-10-19T06:37:53;96313.72;;;7.68;100.00
12759;BME280;20944;47.048;15.390;2023-10-19T06:40:23;96309.00;;;7.77;100.00
12759;BME280;20944;47.048;15.390;2023-10-19T06:42:54;96304.28;;;7.87;100.00
12759;BME280;20944;47.048;15.390;2023-10-19T06:45:24;96304.72;;;7.98;100.00
12759;BME280;20944;47.048;15.390;2023-10-19T06:47:53;96264.97;;;7.92;100.00
12759;BME280;20944;47.048;15.390;2023-10-19T06:50:22;96254.00;;;8.05;100.00
12759;BME280;20944;47.048;15.390;2023-10-19T06:52:52;96292.34;;;8.47;100.00
12759;BME280;20944;47.048;15.390;2023-10-19T06:55:21;96303.97;;;8.60;100.00
12759;BME280;20944;47.048;15.390;2023-10-19T06:57:50;96295.84;;;8.68;100.00
12759;BME280;20944;47.048;15.390;2023-10-19T07:00:20;96230.78;;;8.42;100.00
12759;BME280;20944;47.048;15.390;2023-10-19T07:02:50;96293.28;;;8.87;100.00
12759;BME280;20944;47.048;15.390;2023-10-19T07:05:19;96284.38;;;8.91;100.00
12759;BME280;20944;47.048;15.390;2023-10-19T07:07:49;96296.22;;;9.00;100.00
12759;BME280;20944;47.048;15.390;2023-10-19T07:10:20;96253.38;;;8.83;100.00
12759;BME280;20944;47.048;15.390;2023-10-19T07:12:51;96292.09;;;9.14;100.00
12759;BME280;20944;47.048;15.390;2023-10-19T07:15:20;96294.75;;;9.33;100.00
12759;BME280;20944;47.048;15.390;2023-10-19T07:17:53;96210.78;;;9.02;100.00
12759;BME280;20944;47.048;15.390;2023-10-19T07:20:22;96299.72;;;9.58;100.00
12759;BME280;20944;47.048;15.390;2023-10-19T07:22:54;96302.34;;;9.77;100.00
12759;BME280;20944;47.048;15.390;2023-10-19T07:25:24;96279.44;;;9.82;100.00
12759;BME280;20944;47.048;15.390;2023-10-19T07:27:53;96291.59;;;10.02;100.00
12759;BME280;20944;47.048;15.390;2023-10-19T07:30:22;96291.22;;;10.10;100.00
12759;BME280;20944;47.048;15.390;2023-10-19T07:32:53;96308.75;;;10.08;100.00
12759;BME280;20944;47.048;15.390;2023-10-19T07:35:26;96278.06;;;9.92;100.00
12759;BME280;20944;47.048;15.390;2023-10-19T07:37:55;96270.59;;;9.85;100.00
12759;BME280;20944;47.048;15.390;2023-10-19T07:40:25;96280.97;;;10.05;100.00
12759;BME280;20944;47.048;15.390;2023-10-19T07:42:54;96297.84;;;10.17;100.00
12759;BME280;20944;47.048;15.390;2023-10-19T07:45:22;96275.78;;;10.59;100.00
12759;BME280;20944;47.048;15.390;2023-10-19T07:47:52;96216.16;;;10.46;100.00
12759;BME280;20944;47.048;15.390;2023-10-19T07:50:21;96253.94;;;11.10;100.00
12759;BME280;20944;47.048;15.390;2023-10-19T07:52:50;96267.78;;;11.29;100.00
12759;BME280;20944;47.048;15.390;2023-10-19T07:55:21;96259.50;;;11.37;100.00
12759;BME280;20944;47.048;15.390;2023-10-19T07:57:51;96248.66;;;11.43;100.00
12759;BME280;20944;47.048;15.390;2023-10-19T08:00:21;96264.88;;;11.67;100.00
12759;BME280;20944;47.048;15.390;2023-10-19T08:02:51;96275.63;;;11.78;100.00
12759;BME280;20944;47.048;15.390;2023-10-19T08:05:21;96251.31;;;11.75;100.00
12759;BME280;20944;47.048;15.390;2023-10-19T08:07:49;96262.97;;;11.86;100.00
12759;BME280;20944;47.048;15.390;2023-10-19T08:10:19;96247.91;;;11.90;100.00
12759;BME280;20944;47.048;15.390;2023-10-19T08:12:48;96254.41;;;12.14;100.00
12759;BME280;20944;47.048;15.390;2023-10-19T08:15:19;96246.44;;;12.16;100.00
12759;BME280;20944;47.048;15.390;2023-10-19T08:17:49;96261.41;;;12.30;100.00
12759;BME280;20944;47.048;15.390;2023-10-19T08:20:18;96238.63;;;12.30;100.00
12759;BME280;20944;47.048;15.390;2023-10-19T08:22:53;96248.53;;;12.41;100.00
12759;BME280;20944;47.048;15.390;2023-10-19T08:25:24;96238.88;;;12.41;100.00
12759;BME280;20944;47.048;15.390;2023-10-19T08:28:02;96227.97;;;12.33;100.00
12759;BME280;20944;47.048;15.390;2023-10-19T08:30:33;96233.56;;;12.27;100.00
12759;BME280;20944;47.048;15.390;2023-10-19T08:33:01;96236.94;;;12.29;100.00
12759;BME280;20944;47.048;15.390;2023-10-19T08:35:30;96231.94;;;12.25;100.00
12759;BME280;20944;47.048;15.390;2023-10-19T08:37:59;96232.28;;;12.19;100.00
12759;BME280;20944;47.048;15.390;2023-10-19T08:40:27;96247.44;;;12.29;100.00
12759;BME280;20944;47.048;15.390;2023-10-19T08:42:55;96232.03;;;12.23;100.00
12759;BME280;20944;47.048;15.390;2023-10-19T08:45:24;96244.50;;;12.20;100.00
12759;BME280;20944;47.048;15.390;2023-10-19T08:47:55;96228.91;;;12.17;100.00
12759;BME280;20944;47.048;15.390;2023-10-19T08:50:24;96227.56;;;12.09;100.00
12759;BME280;20944;47.048;15.390;2023-10-19T08:52:54;96242.03;;;12.17;100.00
12759;BME280;20944;47.048;15.390;2023-10-19T08:55:23;96189.31;;;11.90;100.00
12759;BME280;20944;47.048;15.390;2023-10-19T08:58:11;96194.78;;;12.17;100.00
12759;BME280;20944;47.048;15.390;2023-10-19T09:00:43;96212.66;;;12.26;100.00
12759;BME280;20944;47.048;15.390;2023-10-19T09:03:16;96239.09;;;12.53;100.00
12759;BME280;20944;47.048;15.390;2023-10-19T09:05:45;96240.69;;;12.55;100.00
12759;BME280;20944;47.048;15.390;2023-10-19T09:08:15;96229.78;;;12.47;100.00
12759;BME280;20944;47.048;15.390;2023-10-19T09:10:46;96247.22;;;12.64;100.00
12759;BME280;20944;47.048;15.390;2023-10-19T09:13:14;96244.94;;;12.58;100.00
12759;BME280;20944;47.048;15.390;2023-10-19T09:15:47;96233.84;;;12.53;100.00
12759;BME280;20944;47.048;15.390;2023-10-19T09:18:19;96237.25;;;12.69;100.00
12759;BME280;20944;47.048;15.390;2023-10-19T09:20:49;96236.81;;;12.77;100.00
12759;BME280;20944;47.048;15.390;2023-10-19T09:23:21;96241.25;;;12.90;100.00
12759;BME280;20944;47.048;15.390;2023-10-19T09:25:50;96242.31;;;13.02;100.00
12759;BME280;20944;47.048;15.390;2023-10-19T09:28:20;96234.09;;;13.22;100.00
12759;BME280;20944;47.048;15.390;2023-10-19T09:30:51;96224.97;;;13.28;100.00
12759;BME280;20944;47.048;15.390;2023-10-19T09:33:22;96200.91;;;13.20;100.00
12759;BME280;20944;47.048;15.390;2023-10-19T09:35:51;96203.91;;;13.57;100.00
12759;BME280;20944;47.048;15.390;2023-10-19T09:38:23;96212.81;;;13.68;100.00
12759;BME280;20944;47.048;15.390;2023-10-19T09:40:53;96193.75;;;13.65;100.00
12759;BME280;20944;47.048;15.390;2023-10-19T09:43:30;96210.81;;;13.86;100.00
12759;BME280;20944;47.048;15.390;2023-10-19T09:46:01;96209.38;;;13.95;100.00
12759;BME280;20944;47.048;15.390;2023-10-19T09:48:32;96185.19;;;14.02;100.00
12759;BME280;20944;47.048;15.390;2023-10-19T09:51:03;96207.88;;;14.45;100.00
12759;BME280;20944;47.048;15.390;2023-10-19T09:53:31;96195.50;;;14.60;100.00
12759;BME280;20944;47.048;15.390;2023-10-19T09:56:01;96167.78;;;14.79;100.00
12759;BME280;20944;47.048;15.390;2023-10-19T09:58:44;96191.22;;;15.09;100.00
12759;BME280;20944;47.048;15.390;2023-10-19T10:01:15;96191.53;;;15.30;100.00
12759;BME280;20944;47.048;15.390;2023-10-19T10:03:48;96195.50;;;15.49;100.00
12759;BME280;20944;47.048;15.390;2023-10-19T10:06:27;96182.72;;;15.68;100.00
12759;BME280;20944;47.048;15.390;2023-10-19T10:08:57;96118.94;;;15.49;100.00
12759;BME280;20944;47.048;15.390;2023-10-19T10:11:27;96173.03;;;15.93;100.00
12759;BME280;20944;47.048;15.390;2023-10-19T10:13:56;96169.81;;;16.00;100.00
12759;BME280;20944;47.048;15.390;2023-10-19T10:16:26;96174.53;;;16.08;100.00
12759;BME280;20944;47.048;15.390;2023-10-19T10:18:58;96138.00;;;16.02;100.00
12759;BME280;20944;47.048;15.390;2023-10-19T10:21:28;96155.03;;;16.22;100.00
12759;BME280;20944;47.048;15.390;2023-10-19T10:23:59;96156.94;;;16.19;100.00
12759;BME280;20944;47.048;15.390;2023-10-19T10:26:28;96149.72;;;16.10;100.00
12759;BME280;20944;47.048;15.390;2023-10-19T10:29:10;96147.97;;;15.98;100.00
12759;BME280;20944;47.048;15.390;2023-10-19T10:31:42;96141.44;;;15.91;100.00
12759;BME280;20944;47.048;15.390;2023-10-19T10:34:19;96124.31;;;15.73;100.00
12759;BME280;20944;47.048;15.390;2023-10-19T10:37:03;96119.47;;;15.67;100.00
12759;BME280;20944;47.048;15.390;2023-10-19T10:39:32;96120.81;;;15.72;100.00
12759;BME280;20944;47.048;15.390;2023-10-19T10:42:02;96127.59;;;15.63;100.00
12759;BME280;20944;47.048;15.390;2023-10-19T10:44:38;96075.06;;;15.35;100.00
12759;BME280;20944;47.048;15.390;2023-10-19T10:47:08;96113.22;;;15.68;100.00
12759;BME280;20944;47.048;15.390;2023-10-19T10:49:49;96123.53;;;15.71;100.00
12759;BME280;20944;47.048;15.390;2023-10-19T10:52:25;96104.56;;;15.66;100.00
12759;BME280;20944;47.048;15.390;2023-10-19T10:54:54;96117.22;;;15.73;100.00
12759;BME280;20944;47.048;15.390;2023-10-19T10:57:23;96118.66;;;15.77;100.00
12759;BME280;20944;47.048;15.390;2023-10-19T11:00:05;96115.69;;;15.82;100.00
12759;BME280;20944;47.048;15.390;2023-10-19T11:02:35;96116.66;;;15.81;100.00
12759;BME280;20944;47.048;15.390;2023-10-19T11:05:08;96106.94;;;15.81;100.00
12759;BME280;20944;47.048;15.390;2023-10-19T11:07:39;96104.69;;;15.88;100.00
12759;BME280;20944;47.048;15.390;2023-10-19T11:10:10;96103.84;;;15.87;100.00
12759;BME280;20944;47.048;15.390;2023-10-19T11:12:38;96072.19;;;15.75;100.00
12759;BME280;20944;47.048;15.390;2023-10-19T11:15:07;96088.69;;;15.89;100.00
12759;BME280;20944;47.048;15.390;2023-10-19T11:17:42;96081.63;;;15.90;100.00
12759;BME280;20944;47.048;15.390;2023-10-19T11:20:22;96079.66;;;16.05;100.00
12759;BME280;20944;47.048;15.390;2023-10-19T11:22:52;96075.13;;;16.18;100.00
12759;BME280;20944;47.048;15.390;2023-10-19T11:25:24;96067.94;;;16.20;100.00
12759;BME280;20944;47.048;15.390;2023-10-19T11:27:55;96056.44;;;16.32;100.00
12759;BME280;20944;47.048;15.390;2023-10-19T11:30:24;96055.84;;;16.40;100.00
12759;BME280;20944;47.048;15.390;2023-10-19T11:32:53;96066.81;;;16.69;100.00
12759;BME280;20944;47.048;15.390;2023-10-19T11:35:28;96053.28;;;16.96;100.00
12759;BME280;20944;47.048;15.390;2023-10-19T11:37:57;96047.13;;;17.18;100.00
12759;BME280;20944;47.048;15.390;2023-10-19T11:40:27;96032.44;;;17.36;100.00
12759;BME280;20944;47.048;15.390;2023-10-19T11:42:56;96029.94;;;17.67;100.00
12759;BME280;20944;47.048;15.390;2023-10-19T11:45:25;95980.44;;;17.67;100.00
12759;BME280;20944;47.048;15.390;2023-10-19T11:47:55;96031.63;;;18.21;100.00
12759;BME280;20944;47.048;15.390;2023-10-19T11:50:26;96029.25;;;18.39;100.00
12759;BME280;20944;47.048;15.390;2023-10-19T11:52:55;96021.06;;;18.42;100.00
12759;BME280;20944;47.048;15.390;2023-10-19T11:55:24;96023.75;;;18.51;100.00
12759;BME280;20944;47.048;15.390;2023-10-19T11:57:52;96023.59;;;18.53;100.00
12759;BME280;20944;47.048;15.390;2023-10-19T12:00:21;95992.91;;;18.29;100.00
12759;BME280;20944;47.048;15.390;2023-10-19T12:02:51;96014.56;;;18.34;100.00
12759;BME280;20944;47.048;15.390;2023-10-19T12:05:21;96009.78;;;18.28;100.00
12759;BME280;20944;47.048;15.390;2023-10-19T12:07:52;96014.75;;;18.22;100.00
12759;BME280;20944;47.048;15.390;2023-10-19T12:10:20;96008.56;;;18.32;100.00
12759;BME280;20944;47.048;15.390;2023-10-19T12:12:53;95991.09;;;18.30;100.00
12759;BME280;20944;47.048;15.390;2023-10-19T12:15:29;95976.88;;;18.31;100.00
12759;BME280;20944;47.048;15.390;2023-10-19T12:17:58;95975.59;;;18.56;100.00
12759;BME280;20944;47.048;15.390;2023-10-19T12:20:27;95992.34;;;18.77;100.00
12759;BME280;20944;47.048;15.390;2023-10-19T12:22:59;95989.69;;;18.77;100.00
12759;BME280;20944;47.048;15.390;2023-10-19T12:25:28;95987.84;;;18.68;100.00
12759;BME280;20944;47.048;15.390;2023-10-19T12:28:19;95983.09;;;18.72;100.00
12759;BME280;20944;47.048;15.390;2023-10-19T12:30:48;95973.22;;;18.83;100.00
12759;BME280;20944;47.048;15.390;2023-10-19T12:33:16;95981.69;;;19.08;100.00
12759;BME280;20944;47.048;15.390;2023-10-19T12:35:47;95959.94;;;19.33;100.00
12759;BME280;20944;47.048;15.390;2023-10-19T12:38:22;95963.75;;;19.60;100.00
12759;BME280;20944;47.048;15.390;2023-10-19T12:40:50;95969.50;;;19.65;100.00
12759;BME280;20944;47.048;15.390;2023-10-19T12:43:18;95973.81;;;19.56;100.00
12759;BME280;20944;47.048;15.390;2023-10-19T12:45:46;95966.94;;;19.54;100.00
12759;BME280;20944;47.048;15.390;2023-10-19T12:48:21;95958.41;;;19.50;100.00
12759;BME280;20944;47.048;15.390;2023-10-19T12:50:52;95946.84;;;19.80;100.00
12759;BME280;20944;47.048;15.390;2023-10-19T12:53:21;95945.53;;;20.13;100.00
12759;BME280;20944;47.048;15.390;2023-10-19T12:55:52;95941.41;;;20.38;100.00
12759;BME280;20944;47.048;15.390;2023-10-19T12:58:20;95945.38;;;20.25;100.00
12759;BME280;20944;47.048;15.390;2023-10-19T13:00:49;95948.38;;;19.92;100.00
12759;BME280;20944;47.048;15.390;2023-10-19T13:03:17;95949.22;;;19.74;100.00
12759;BME280;20944;47.048;15.390;2023-10-19T13:05:46;95959.53;;;19.57;100.00